Portales de las Piedras, Puerto Rico
Current Conditions -  °F | °C
As of 9:53 AM on Wednesday 22 Oct 2014 (Local Time) from TJNR Reporting Station
Clear Clear  
Wind Chill: 88°   Ceiling: Unl
Heat Index: 96°   Visibility: 10mi
Dew Point: 73°   Wind: 13mph
Humidity: 61%   Direction: 120°ESE
Pressure: 30.02"   Gusts: NA
Location:  18.1853°N, 65.8667°W
Report Text: TJNR 221353Z AUTO 12011KT 10SM CLR 31/23 A3002 RMK AO2 SLP165 T03110228
Loading
Personal Weather Stations






























Interactive Weather Map
Tropical Storm Tracking
New forecast layout! Learn more

10-Day Weather Forecast

Advertisements
Track Severe Weather on mobile